RYR4JK LIRF-LICC
Flight info
| Callsign | RYR4JK |
|---|---|
| Flight time | 0h 56m |
| Altitude | 35000 |
| Route | ROTUN DCT DORAS DCT BEKIV DCT ENEPA DCT LIBRO |
| Aircraft | B38M/M-SDE1FGHILORVWXY/HB1 |
Departure
| Time | 2026-05-07 19:52 |
|---|---|
| Airport | Rome–Fiumicino Leonardo da Vinci International Airport (LIRF) |
Arrival
| Time | 2026-05-07 20:48 |
|---|---|
| Airport | Catania-Fontanarossa Airport (LICC) |
| Time | Latitude | Longitude | Altitude | Speed | Heading |
|---|---|---|---|---|---|
| 2026-05-07 19:09 | 41.79708 | 12.25835 | 16 ft | 0 kts | 115° |
| 2026-05-07 19:41 | 41.79709 | 12.25834 | 16 ft | 1 kts | 115° |
| 2026-05-07 19:41 | 41.79718 | 12.25808 | 16 ft | 4 kts | 112° |
| 2026-05-07 19:41 | 41.79720 | 12.25779 | 17 ft | 4 kts | 56° |
| 2026-05-07 19:42 | 41.79701 | 12.25759 | 20 ft | 2 kts | 25° |
| 2026-05-07 19:42 | 41.79695 | 12.25755 | 16 ft | 0 kts | 25° |
| 2026-05-07 19:46 | 41.79702 | 12.25760 | 20 ft | 4 kts | 25° |
| 2026-05-07 19:46 | 41.79762 | 12.25797 | 16 ft | 16 kts | 25° |
| 2026-05-07 19:46 | 41.79844 | 12.25829 | 16 ft | 8 kts | 332° |
| 2026-05-07 19:46 | 41.79887 | 12.25834 | 16 ft | 8 kts | 19° |
| 2026-05-07 19:47 | 41.79958 | 12.25876 | 16 ft | 14 kts | 24° |
| 2026-05-07 19:47 | 41.80055 | 12.25936 | 16 ft | 17 kts | 25° |
| 2026-05-07 19:47 | 41.80167 | 12.26004 | 18 ft | 19 kts | 24° |
| 2026-05-07 19:47 | 41.80292 | 12.26081 | 16 ft | 21 kts | 25° |
| 2026-05-07 19:48 | 41.80419 | 12.26160 | 18 ft | 16 kts | 24° |
| 2026-05-07 19:48 | 41.80514 | 12.26203 | 19 ft | 14 kts | 51° |
| 2026-05-07 19:48 | 41.80554 | 12.26333 | 18 ft | 16 kts | 70° |
| 2026-05-07 19:48 | 41.80597 | 12.26487 | 19 ft | 19 kts | 69° |
| 2026-05-07 19:49 | 41.80645 | 12.26662 | 18 ft | 21 kts | 69° |
| 2026-05-07 19:49 | 41.80699 | 12.26859 | 16 ft | 24 kts | 70° |
| 2026-05-07 19:49 | 41.80746 | 12.27015 | 16 ft | 14 kts | 53° |
| 2026-05-07 19:49 | 41.80836 | 12.27028 | 16 ft | 11 kts | 340° |
| 2026-05-07 19:50 | 41.80863 | 12.27014 | 16 ft | 0 kts | 340° |
| 2026-05-07 19:50 | 41.80876 | 12.27008 | 16 ft | 3 kts | 340° |
| 2026-05-07 19:50 | 41.80907 | 12.26993 | 16 ft | 7 kts | 340° |
| 2026-05-07 19:51 | 41.80952 | 12.26923 | 15 ft | 12 kts | 267° |
| 2026-05-07 19:51 | 41.80947 | 12.26892 | 17 ft | 3 kts | 254° |
| 2026-05-07 19:51 | 41.80875 | 12.26624 | 18 ft | 69 kts | 249° |
| 2026-05-07 19:51 | 41.80620 | 12.25702 | 19 ft | 139 kts | 250° |
| 2026-05-07 19:52 | 41.80238 | 12.24310 | 337 ft | 168 kts | 253° |
| 2026-05-07 19:52 | 41.79844 | 12.22774 | 1006 ft | 181 kts | 253° |
| 2026-05-07 19:52 | 41.79437 | 12.21176 | 1833 ft | 184 kts | 253° |
| 2026-05-07 19:52 | 41.79168 | 12.19341 | 2143 ft | 216 kts | 270° |
| 2026-05-07 19:53 | 41.79134 | 12.17317 | 3211 ft | 219 kts | 271° |
| 2026-05-07 19:53 | 41.78984 | 12.15277 | 4046 ft | 228 kts | 252° |
| 2026-05-07 19:53 | 41.78142 | 12.13495 | 5004 ft | 226 kts | 224° |
| 2026-05-07 19:53 | 41.76965 | 12.12063 | 5861 ft | 235 kts | 219° |
| 2026-05-07 19:54 | 41.75704 | 12.10620 | 6728 ft | 239 kts | 218° |
| 2026-05-07 19:54 | 41.74496 | 12.09197 | 7957 ft | 224 kts | 219° |
| 2026-05-07 19:54 | 41.73362 | 12.07836 | 9067 ft | 218 kts | 220° |
| 2026-05-07 19:54 | 41.72014 | 12.06800 | 9575 ft | 236 kts | 193° |
| 2026-05-07 19:55 | 41.70315 | 12.06788 | 10025 ft | 257 kts | 167° |
| 2026-05-07 19:55 | 41.68595 | 12.07706 | 10472 ft | 277 kts | 158° |
| 2026-05-07 19:55 | 41.66749 | 12.08616 | 10876 ft | 297 kts | 162° |
| 2026-05-07 19:55 | 41.64737 | 12.09562 | 11322 ft | 315 kts | 162° |
| 2026-05-07 19:56 | 41.62626 | 12.10562 | 11899 ft | 328 kts | 161° |
| 2026-05-07 19:56 | 41.60470 | 12.11595 | 12772 ft | 330 kts | 161° |
| 2026-05-07 19:56 | 41.58293 | 12.12647 | 13589 ft | 335 kts | 161° |
| 2026-05-07 19:56 | 41.56087 | 12.13714 | 14362 ft | 339 kts | 162° |
| 2026-05-07 19:57 | 41.53853 | 12.14795 | 15131 ft | 343 kts | 162° |
| 2026-05-07 19:57 | 41.51599 | 12.15888 | 15901 ft | 347 kts | 162° |
| 2026-05-07 19:57 | 41.49316 | 12.16992 | 16638 ft | 351 kts | 162° |
| 2026-05-07 19:57 | 41.47008 | 12.18108 | 17388 ft | 354 kts | 162° |
| 2026-05-07 19:58 | 41.44712 | 12.19218 | 18110 ft | 358 kts | 162° |
| 2026-05-07 19:58 | 41.42358 | 12.20356 | 18731 ft | 362 kts | 162° |
| 2026-05-07 19:58 | 41.39974 | 12.21507 | 19307 ft | 367 kts | 162° |
| 2026-05-07 19:58 | 41.37558 | 12.22673 | 19876 ft | 371 kts | 162° |
| 2026-05-07 19:59 | 41.35115 | 12.23851 | 20445 ft | 376 kts | 162° |
| 2026-05-07 19:59 | 41.32645 | 12.25040 | 20982 ft | 380 kts | 162° |
| 2026-05-07 19:59 | 41.30153 | 12.26239 | 21641 ft | 381 kts | 162° |
| 2026-05-07 19:59 | 41.27611 | 12.27462 | 22194 ft | 386 kts | 162° |
| 2026-05-07 20:00 | 41.25075 | 12.28680 | 22746 ft | 390 kts | 163° |
| 2026-05-07 20:00 | 41.22510 | 12.29911 | 23310 ft | 393 kts | 162° |
| 2026-05-07 20:00 | 41.19886 | 12.31169 | 23774 ft | 398 kts | 163° |
| 2026-05-07 20:00 | 41.17276 | 12.32419 | 24247 ft | 400 kts | 163° |
| 2026-05-07 20:01 | 41.14644 | 12.33680 | 24716 ft | 403 kts | 163° |
| 2026-05-07 20:01 | 41.11998 | 12.34945 | 25164 ft | 406 kts | 163° |
| 2026-05-07 20:01 | 41.09335 | 12.36215 | 25660 ft | 406 kts | 164° |
| 2026-05-07 20:01 | 41.06719 | 12.37468 | 26236 ft | 406 kts | 164° |
| 2026-05-07 20:02 | 41.04048 | 12.38743 | 26604 ft | 410 kts | 164° |
| 2026-05-07 20:02 | 41.01351 | 12.40029 | 27025 ft | 413 kts | 164° |
| 2026-05-07 20:02 | 40.98636 | 12.41324 | 27412 ft | 416 kts | 165° |
| 2026-05-07 20:02 | 40.95900 | 12.42626 | 27716 ft | 420 kts | 165° |
| 2026-05-07 20:03 | 40.93137 | 12.43939 | 28051 ft | 423 kts | 165° |
| 2026-05-07 20:03 | 40.90323 | 12.45278 | 28418 ft | 425 kts | 165° |
| 2026-05-07 20:03 | 40.87527 | 12.46605 | 28722 ft | 428 kts | 165° |
| 2026-05-07 20:03 | 40.84751 | 12.47922 | 29041 ft | 431 kts | 165° |
| 2026-05-07 20:04 | 40.81925 | 12.49262 | 29350 ft | 433 kts | 165° |
| 2026-05-07 20:04 | 40.79079 | 12.50610 | 29673 ft | 436 kts | 165° |
| 2026-05-07 20:04 | 40.76220 | 12.51963 | 29981 ft | 438 kts | 165° |
| 2026-05-07 20:04 | 40.73342 | 12.53322 | 30242 ft | 440 kts | 165° |
| 2026-05-07 20:05 | 40.70458 | 12.54684 | 30521 ft | 441 kts | 166° |
| 2026-05-07 20:05 | 40.67560 | 12.56052 | 30794 ft | 443 kts | 166° |
| 2026-05-07 20:05 | 40.64655 | 12.57421 | 31039 ft | 444 kts | 166° |
| 2026-05-07 20:05 | 40.61747 | 12.58791 | 31366 ft | 444 kts | 167° |
| 2026-05-07 20:06 | 40.58833 | 12.60163 | 31609 ft | 446 kts | 167° |
| 2026-05-07 20:06 | 40.55906 | 12.61538 | 31850 ft | 447 kts | 167° |
| 2026-05-07 20:06 | 40.53014 | 12.62897 | 32088 ft | 449 kts | 167° |
| 2026-05-07 20:06 | 40.50068 | 12.64280 | 32323 ft | 450 kts | 167° |
| 2026-05-07 20:07 | 40.47112 | 12.65666 | 32552 ft | 452 kts | 167° |
| 2026-05-07 20:07 | 40.44148 | 12.67055 | 32784 ft | 453 kts | 167° |
| 2026-05-07 20:07 | 40.41182 | 12.68443 | 33089 ft | 452 kts | 168° |
| 2026-05-07 20:07 | 40.38234 | 12.69824 | 33490 ft | 449 kts | 168° |
| 2026-05-07 20:08 | 40.35293 | 12.71199 | 33812 ft | 448 kts | 168° |
| 2026-05-07 20:08 | 40.32364 | 12.72567 | 34095 ft | 447 kts | 168° |
| 2026-05-07 20:08 | 40.29438 | 12.73932 | 34345 ft | 446 kts | 168° |
| 2026-05-07 20:08 | 40.26518 | 12.75293 | 34585 ft | 445 kts | 169° |
| 2026-05-07 20:09 | 40.23640 | 12.76634 | 34810 ft | 445 kts | 169° |
| 2026-05-07 20:09 | 40.20722 | 12.77991 | 34914 ft | 446 kts | 169° |
| 2026-05-07 20:10 | 40.12000 | 12.82040 | 34932 ft | 442 kts | 169° |
| 2026-05-07 20:10 | 40.06203 | 12.84725 | 34930 ft | 442 kts | 169° |
| 2026-05-07 20:11 | 40.00403 | 12.87406 | 34931 ft | 442 kts | 169° |
| 2026-05-07 20:11 | 39.94603 | 12.90082 | 34928 ft | 442 kts | 169° |
| 2026-05-07 20:12 | 39.88842 | 12.92736 | 34920 ft | 442 kts | 169° |
| 2026-05-07 20:12 | 39.83040 | 12.95403 | 34922 ft | 442 kts | 169° |
| 2026-05-07 20:13 | 39.77241 | 12.98065 | 34923 ft | 442 kts | 169° |
| 2026-05-07 20:13 | 39.71441 | 13.00722 | 34909 ft | 441 kts | 170° |
| 2026-05-07 20:14 | 39.65668 | 13.03362 | 34917 ft | 440 kts | 170° |
| 2026-05-07 20:14 | 39.59927 | 13.05931 | 34921 ft | 435 kts | 174° |
| 2026-05-07 20:15 | 39.54092 | 13.07972 | 34911 ft | 435 kts | 174° |
| 2026-05-07 20:15 | 39.48269 | 13.10068 | 34919 ft | 433 kts | 174° |
| 2026-05-07 20:16 | 39.42478 | 13.12161 | 34911 ft | 431 kts | 174° |
| 2026-05-07 20:16 | 39.36694 | 13.14248 | 34895 ft | 431 kts | 175° |
| 2026-05-07 20:17 | 39.30975 | 13.16310 | 34905 ft | 429 kts | 175° |
| 2026-05-07 20:17 | 39.25231 | 13.18376 | 34901 ft | 426 kts | 175° |
| 2026-05-07 20:18 | 39.19536 | 13.20421 | 34904 ft | 424 kts | 175° |
| 2026-05-07 20:18 | 39.13846 | 13.22460 | 34900 ft | 424 kts | 175° |
| 2026-05-07 20:19 | 39.08158 | 13.24496 | 34894 ft | 425 kts | 175° |
| 2026-05-07 20:19 | 39.02466 | 13.26529 | 34884 ft | 424 kts | 176° |
| 2026-05-07 20:20 | 38.96841 | 13.28536 | 34889 ft | 422 kts | 176° |
| 2026-05-07 20:20 | 38.91150 | 13.30562 | 34892 ft | 422 kts | 176° |
| 2026-05-07 20:21 | 38.85489 | 13.32575 | 34895 ft | 422 kts | 176° |
| 2026-05-07 20:21 | 38.79829 | 13.34583 | 34865 ft | 422 kts | 176° |
| 2026-05-07 20:22 | 38.74225 | 13.36570 | 34672 ft | 417 kts | 176° |
| 2026-05-07 20:22 | 38.71441 | 13.37557 | 34160 ft | 413 kts | 176° |
| 2026-05-07 20:22 | 38.68689 | 13.38530 | 33733 ft | 408 kts | 175° |
| 2026-05-07 20:22 | 38.65971 | 13.39490 | 33195 ft | 404 kts | 175° |
| 2026-05-07 20:23 | 38.63268 | 13.40445 | 32641 ft | 402 kts | 175° |
| 2026-05-07 20:23 | 38.60580 | 13.41393 | 32115 ft | 399 kts | 175° |
| 2026-05-07 20:23 | 38.57912 | 13.42334 | 31597 ft | 397 kts | 174° |
| 2026-05-07 20:23 | 38.55259 | 13.43269 | 31083 ft | 394 kts | 174° |
| 2026-05-07 20:24 | 38.52621 | 13.44197 | 30584 ft | 392 kts | 173° |
| 2026-05-07 20:24 | 38.49994 | 13.45121 | 30088 ft | 391 kts | 173° |
| 2026-05-07 20:24 | 38.47375 | 13.46041 | 29518 ft | 390 kts | 173° |
| 2026-05-07 20:24 | 38.44766 | 13.46956 | 28981 ft | 388 kts | 172° |
| 2026-05-07 20:25 | 38.42174 | 13.47866 | 28485 ft | 385 kts | 172° |
| 2026-05-07 20:25 | 38.39635 | 13.48756 | 28008 ft | 382 kts | 172° |
| 2026-05-07 20:25 | 38.37077 | 13.49652 | 27499 ft | 380 kts | 172° |
| 2026-05-07 20:25 | 38.34532 | 13.50543 | 27043 ft | 378 kts | 172° |
| 2026-05-07 20:26 | 38.32005 | 13.51427 | 26577 ft | 376 kts | 172° |
| 2026-05-07 20:26 | 38.29492 | 13.52306 | 26136 ft | 373 kts | 172° |
| 2026-05-07 20:26 | 38.26993 | 13.53180 | 25697 ft | 372 kts | 172° |
| 2026-05-07 20:26 | 38.24504 | 13.54048 | 25251 ft | 370 kts | 172° |
| 2026-05-07 20:27 | 38.22023 | 13.54914 | 24818 ft | 369 kts | 171° |
| 2026-05-07 20:27 | 38.19549 | 13.55777 | 24394 ft | 368 kts | 171° |
| 2026-05-07 20:27 | 38.17114 | 13.56625 | 23952 ft | 367 kts | 171° |
| 2026-05-07 20:27 | 38.14651 | 13.57483 | 23541 ft | 367 kts | 171° |
| 2026-05-07 20:28 | 38.12190 | 13.58338 | 23049 ft | 366 kts | 170° |
| 2026-05-07 20:28 | 38.09742 | 13.59189 | 22585 ft | 364 kts | 171° |
| 2026-05-07 20:28 | 38.07419 | 13.59996 | 22196 ft | 361 kts | 171° |
| 2026-05-07 20:28 | 38.05003 | 13.60835 | 21808 ft | 358 kts | 171° |
| 2026-05-07 20:29 | 38.02573 | 13.61679 | 21411 ft | 356 kts | 171° |
| 2026-05-07 20:29 | 38.00192 | 13.62505 | 21021 ft | 354 kts | 171° |
| 2026-05-07 20:29 | 37.97826 | 13.63325 | 20646 ft | 352 kts | 171° |
| 2026-05-07 20:29 | 37.95467 | 13.64142 | 20271 ft | 350 kts | 170° |
| 2026-05-07 20:30 | 37.93122 | 13.64953 | 19900 ft | 349 kts | 170° |
| 2026-05-07 20:30 | 37.90788 | 13.65761 | 19517 ft | 347 kts | 170° |
| 2026-05-07 20:30 | 37.88527 | 13.66905 | 19039 ft | 357 kts | 153° |
| 2026-05-07 20:30 | 37.86631 | 13.68973 | 18695 ft | 364 kts | 134° |
| 2026-05-07 20:31 | 37.85075 | 13.71508 | 18325 ft | 365 kts | 132° |
| 2026-05-07 20:31 | 37.83541 | 13.74070 | 17884 ft | 365 kts | 132° |
| 2026-05-07 20:31 | 37.82043 | 13.76599 | 17479 ft | 363 kts | 132° |
| 2026-05-07 20:31 | 37.80542 | 13.79148 | 17091 ft | 360 kts | 131° |
| 2026-05-07 20:32 | 37.79054 | 13.81684 | 16706 ft | 358 kts | 131° |
| 2026-05-07 20:32 | 37.77573 | 13.84208 | 16321 ft | 356 kts | 131° |
| 2026-05-07 20:32 | 37.76101 | 13.86717 | 15922 ft | 354 kts | 131° |
| 2026-05-07 20:32 | 37.74637 | 13.89211 | 15558 ft | 352 kts | 131° |
| 2026-05-07 20:33 | 37.74085 | 13.90152 | 15414 ft | 352 kts | 131° |
| 2026-05-07 20:33 | 37.72628 | 13.92631 | 15037 ft | 351 kts | 131° |
| 2026-05-07 20:33 | 37.71173 | 13.95106 | 14658 ft | 350 kts | 131° |
| 2026-05-07 20:33 | 37.69723 | 13.97569 | 14283 ft | 349 kts | 131° |
| 2026-05-07 20:34 | 37.68278 | 14.00022 | 13906 ft | 348 kts | 130° |
| 2026-05-07 20:34 | 37.66834 | 14.02472 | 13486 ft | 347 kts | 130° |
| 2026-05-07 20:34 | 37.65393 | 14.04914 | 13069 ft | 345 kts | 131° |
| 2026-05-07 20:34 | 37.63965 | 14.07334 | 12696 ft | 342 kts | 130° |
| 2026-05-07 20:35 | 37.62547 | 14.09734 | 12326 ft | 340 kts | 130° |
| 2026-05-07 20:35 | 37.61137 | 14.12120 | 11950 ft | 338 kts | 130° |
| 2026-05-07 20:35 | 37.59733 | 14.14493 | 11590 ft | 337 kts | 130° |
| 2026-05-07 20:35 | 37.58353 | 14.16824 | 11218 ft | 336 kts | 130° |
| 2026-05-07 20:36 | 37.56956 | 14.19183 | 10829 ft | 335 kts | 130° |
| 2026-05-07 20:36 | 37.55566 | 14.21527 | 10505 ft | 333 kts | 130° |
| 2026-05-07 20:36 | 37.54195 | 14.23838 | 10321 ft | 325 kts | 131° |
| 2026-05-07 20:36 | 37.52861 | 14.26085 | 10180 ft | 316 kts | 131° |
| 2026-05-07 20:37 | 37.51558 | 14.28278 | 10023 ft | 308 kts | 131° |
| 2026-05-07 20:37 | 37.50290 | 14.30413 | 9821 ft | 302 kts | 131° |
| 2026-05-07 20:37 | 37.49032 | 14.32526 | 9475 ft | 302 kts | 131° |
| 2026-05-07 20:37 | 37.47792 | 14.34610 | 9120 ft | 302 kts | 131° |
| 2026-05-07 20:38 | 37.46533 | 14.36725 | 8808 ft | 301 kts | 131° |
| 2026-05-07 20:38 | 37.45291 | 14.38809 | 8646 ft | 293 kts | 131° |
| 2026-05-07 20:38 | 37.44090 | 14.40825 | 8490 ft | 283 kts | 131° |
| 2026-05-07 20:38 | 37.42938 | 14.42762 | 8385 ft | 269 kts | 131° |
| 2026-05-07 20:39 | 37.41919 | 14.44683 | 8221 ft | 264 kts | 116° |
| 2026-05-07 20:39 | 37.41574 | 14.46935 | 7878 ft | 265 kts | 89° |
| 2026-05-07 20:39 | 37.41745 | 14.49249 | 7637 ft | 267 kts | 85° |
| 2026-05-07 20:39 | 37.41944 | 14.51580 | 7365 ft | 269 kts | 84° |
| 2026-05-07 20:40 | 37.42178 | 14.53924 | 7062 ft | 271 kts | 84° |
| 2026-05-07 20:40 | 37.42404 | 14.56289 | 6723 ft | 273 kts | 85° |
| 2026-05-07 20:40 | 37.42619 | 14.58647 | 6382 ft | 277 kts | 85° |
| 2026-05-07 20:40 | 37.42830 | 14.61036 | 6077 ft | 272 kts | 85° |
| 2026-05-07 20:41 | 37.43033 | 14.63371 | 5729 ft | 263 kts | 85° |
| 2026-05-07 20:41 | 37.43225 | 14.65609 | 5379 ft | 252 kts | 84° |
| 2026-05-07 20:41 | 37.43409 | 14.67773 | 5077 ft | 246 kts | 84° |
| 2026-05-07 20:41 | 37.43587 | 14.69880 | 4775 ft | 239 kts | 84° |
| 2026-05-07 20:42 | 37.43761 | 14.71935 | 4492 ft | 231 kts | 84° |
| 2026-05-07 20:42 | 37.43926 | 14.73901 | 4302 ft | 222 kts | 84° |
| 2026-05-07 20:42 | 37.44088 | 14.75823 | 4189 ft | 218 kts | 85° |
| 2026-05-07 20:42 | 37.44243 | 14.77671 | 4084 ft | 213 kts | 84° |
| 2026-05-07 20:43 | 37.44396 | 14.79493 | 3947 ft | 205 kts | 84° |
| 2026-05-07 20:43 | 37.44544 | 14.81251 | 3707 ft | 200 kts | 84° |
| 2026-05-07 20:43 | 37.44689 | 14.82972 | 3457 ft | 195 kts | 84° |
| 2026-05-07 20:43 | 37.44829 | 14.84647 | 3220 ft | 190 kts | 84° |
| 2026-05-07 20:44 | 37.44967 | 14.86289 | 2978 ft | 187 kts | 84° |
| 2026-05-07 20:44 | 37.45103 | 14.87908 | 2755 ft | 185 kts | 84° |
| 2026-05-07 20:44 | 37.45236 | 14.89498 | 2499 ft | 175 kts | 84° |
| 2026-05-07 20:44 | 37.45357 | 14.90935 | 2309 ft | 156 kts | 84° |
| 2026-05-07 20:45 | 37.45466 | 14.92240 | 2088 ft | 147 kts | 83° |
| 2026-05-07 20:45 | 37.45569 | 14.93502 | 1892 ft | 144 kts | 82° |
| 2026-05-07 20:45 | 37.45676 | 14.94734 | 1709 ft | 144 kts | 82° |
| 2026-05-07 20:45 | 37.45781 | 14.95984 | 1497 ft | 143 kts | 83° |
| 2026-05-07 20:46 | 37.45878 | 14.97221 | 1324 ft | 142 kts | 83° |
| 2026-05-07 20:46 | 37.45975 | 14.98457 | 1076 ft | 142 kts | 81° |
| 2026-05-07 20:46 | 37.46090 | 14.99675 | 969 ft | 140 kts | 83° |
| 2026-05-07 20:46 | 37.46185 | 15.00910 | 815 ft | 142 kts | 84° |
| 2026-05-07 20:47 | 37.46299 | 15.02146 | 604 ft | 141 kts | 82° |
| 2026-05-07 20:47 | 37.46401 | 15.03368 | 416 ft | 138 kts | 83° |
| 2026-05-07 20:47 | 37.46498 | 15.04551 | 227 ft | 134 kts | 82° |
| 2026-05-07 20:47 | 37.46598 | 15.05694 | 58 ft | 127 kts | 82° |
| 2026-05-07 20:48 | 37.46672 | 15.06551 | 54 ft | 65 kts | 84° |
| 2026-05-07 20:48 | 37.46710 | 15.07017 | 51 ft | 47 kts | 84° |
| 2026-05-07 20:48 | 37.46736 | 15.07339 | 53 ft | 31 kts | 84° |
| 2026-05-07 20:48 | 37.46776 | 15.07594 | 51 ft | 28 kts | 69° |
| 2026-05-07 20:49 | 37.46830 | 15.07728 | 53 ft | 20 kts | 56° |
| 2026-05-07 20:49 | 37.46895 | 15.07806 | 54 ft | 10 kts | 0° |
| 2026-05-07 20:49 | 37.46936 | 15.07759 | 54 ft | 8 kts | 279° |
| 2026-05-07 20:49 | 37.46931 | 15.07668 | 54 ft | 14 kts | 264° |
| 2026-05-07 20:50 | 37.46916 | 15.07497 | 52 ft | 24 kts | 264° |
| 2026-05-07 20:50 | 37.46896 | 15.07258 | 51 ft | 26 kts | 264° |
| 2026-05-07 20:50 | 37.46878 | 15.07049 | 52 ft | 19 kts | 264° |
| 2026-05-07 20:50 | 37.46866 | 15.06891 | 51 ft | 18 kts | 264° |
| 2026-05-07 20:51 | 37.46859 | 15.06780 | 53 ft | 8 kts | 285° |
| 2026-05-07 20:51 | 37.46883 | 15.06767 | 53 ft | 4 kts | 7° |
| 2026-05-07 20:51 | 37.46921 | 15.06764 | 53 ft | 4 kts | 354° |
| 2026-05-07 20:51 | 37.46927 | 15.06763 | 50 ft | 0 kts | 354° |